createdAt,value
2022-09-28T00:01:11.430Z,1.90
2022-09-28T00:03:39.609Z,1.60
2022-09-28T00:06:09.940Z,1.93
2022-09-28T00:08:38.318Z,2.73
2022-09-28T00:11:11.210Z,1.77
2022-09-28T00:13:40.435Z,2.40
2022-09-28T00:16:11.456Z,2.70
2022-09-28T00:18:39.711Z,2.80
2022-09-28T00:21:10.150Z,3.30
2022-09-28T00:24:00.007Z,1.30
2022-09-28T00:26:30.802Z,3.60
2022-09-28T00:29:00.806Z,2.00
2022-09-28T00:31:31.807Z,2.03
2022-09-28T00:34:00.545Z,1.20
2022-09-28T00:36:29.915Z,2.60
2022-09-28T00:38:58.436Z,0.93
2022-09-28T00:41:29.712Z,1.93
2022-09-28T00:44:33.354Z,4.23
2022-09-28T00:47:03.674Z,2.47
2022-09-28T00:49:35.229Z,6.63
2022-09-28T00:52:05.172Z,3.53
2022-09-28T00:54:33.514Z,3.20
2022-09-28T00:57:04.322Z,1.70
2022-09-28T00:59:33.059Z,2.47
2022-09-28T01:02:01.840Z,3.00
2022-09-28T01:04:31.437Z,3.07
2022-09-28T01:07:00.521Z,1.53
2022-09-28T01:09:29.245Z,3.17
2022-09-28T01:11:57.483Z,3.03
2022-09-28T01:14:27.638Z,1.30
2022-09-28T01:17:01.990Z,5.90
2022-09-28T01:20:06.065Z,1.40
2022-09-28T01:23:23.467Z,6.50
2022-09-28T01:25:54.987Z,1.50
2022-09-28T01:28:26.930Z,3.73
2022-09-28T01:31:03.399Z,2.50
2022-09-28T01:33:36.619Z,2.13
2022-09-28T01:36:09.007Z,1.67
2022-09-28T01:38:40.774Z,2.33
2022-09-28T01:41:10.746Z,4.90
2022-09-28T01:43:42.158Z,5.13
2022-09-28T01:46:14.154Z,2.50
2022-09-28T01:48:45.910Z,1.90
2022-09-28T01:51:18.551Z,2.27
2022-09-28T01:53:50.409Z,2.67
2022-09-28T01:56:24.739Z,2.13
2022-09-28T01:58:56.557Z,2.97
2022-09-28T02:01:29.566Z,2.77
2022-09-28T02:04:01.693Z,2.70
2022-09-28T02:06:33.311Z,2.80
2022-09-28T02:09:04.914Z,4.70
2022-09-28T02:11:46.675Z,3.70
2022-09-28T02:14:17.565Z,4.90
2022-09-28T02:16:48.786Z,2.13
2022-09-28T02:19:19.704Z,2.97
2022-09-28T02:21:55.646Z,2.83
2022-09-28T02:24:26.289Z,3.77
2022-09-28T02:26:56.273Z,4.63
2022-09-28T02:29:26.256Z,2.90
2022-09-28T02:31:54.766Z,3.20
2022-09-28T02:34:23.042Z,8.00
2022-09-28T02:36:51.489Z,3.30
2022-09-28T02:39:20.157Z,3.30
2022-09-28T02:41:55.979Z,3.27
2022-09-28T02:45:01.986Z,3.77
2022-09-28T02:47:39.780Z,2.27
2022-09-28T02:50:14.193Z,2.87
2022-09-28T02:52:57.771Z,2.70
2022-09-28T02:55:35.012Z,6.20
2022-09-28T02:58:15.292Z,1.80
2022-09-28T03:00:47.478Z,2.97
2022-09-28T03:03:19.992Z,2.20
2022-09-28T03:05:54.566Z,3.17
2022-09-28T03:08:25.776Z,2.77
2022-09-28T03:10:57.893Z,4.37
2022-09-28T03:13:26.546Z,2.90
2022-09-28T03:16:08.652Z,3.20
2022-09-28T03:18:37.136Z,2.30
2022-09-28T03:21:06.201Z,4.37
2022-09-28T03:23:34.711Z,2.37
2022-09-28T03:26:03.476Z,5.67
2022-09-28T03:28:32.015Z,2.57
2022-09-28T03:31:01.769Z,4.57
2022-09-28T03:33:30.250Z,4.40
2022-09-28T03:35:58.489Z,3.50
2022-09-28T03:38:26.749Z,6.83
2022-09-28T03:40:56.347Z,2.83
2022-09-28T03:43:25.430Z,6.93
2022-09-28T03:45:56.723Z,5.33
2022-09-28T03:48:32.109Z,3.97
2022-09-28T03:51:02.309Z,5.03
2022-09-28T03:53:30.998Z,2.83
2022-09-28T03:56:05.036Z,3.03
2022-09-28T03:58:34.109Z,2.30
2022-09-28T04:01:03.873Z,4.40
2022-09-28T04:03:34.020Z,7.57
2022-09-28T04:06:02.588Z,4.50
2022-09-28T04:08:30.969Z,3.50
2022-09-28T04:11:00.568Z,5.00
2022-09-28T04:13:29.904Z,7.20
2022-09-28T04:16:02.247Z,1.93
2022-09-28T04:18:35.323Z,5.67
2022-09-28T04:21:07.886Z,6.80
2022-09-28T04:23:41.629Z,5.73
2022-09-28T04:26:16.733Z,3.93
2022-09-28T04:29:06.354Z,3.93
2022-09-28T04:31:39.482Z,4.13
2022-09-28T04:34:09.593Z,3.60
2022-09-28T04:36:37.933Z,6.60
2022-09-28T04:39:06.555Z,2.33
2022-09-28T04:41:35.249Z,4.73
2022-09-28T04:44:03.673Z,3.17
2022-09-28T04:46:32.133Z,2.47
2022-09-28T04:49:25.574Z,6.50
2022-09-28T04:51:55.371Z,2.77
2022-09-28T04:54:23.592Z,5.67
2022-09-28T04:56:52.993Z,6.13
2022-09-28T04:59:21.403Z,9.73
2022-09-28T05:01:50.420Z,2.70
2022-09-28T05:04:38.491Z,7.43
2022-09-28T05:07:26.930Z,3.07
2022-09-28T05:09:56.325Z,5.10
2022-09-28T05:12:24.693Z,12.10
2022-09-28T05:14:52.948Z,9.80
2022-09-28T05:17:21.274Z,10.93
2022-09-28T05:20:17.025Z,14.80
2022-09-28T05:22:45.765Z,31.53
2022-09-28T05:25:14.465Z,22.83
2022-09-28T05:27:57.091Z,37.87
2022-09-28T05:30:38.317Z,42.00
2022-09-28T05:33:25.102Z,39.50
2022-09-28T05:36:21.403Z,24.53
2022-09-28T05:38:49.734Z,31.67
2022-09-28T05:41:18.015Z,18.10
2022-09-28T05:43:46.811Z,17.93
2022-09-28T05:46:15.697Z,21.90
2022-09-28T05:48:44.022Z,17.70
2022-09-28T05:51:12.399Z,20.67
2022-09-28T05:53:42.017Z,14.20
2022-09-28T05:56:10.779Z,15.87
2022-09-28T05:58:43.334Z,14.83
2022-09-28T06:01:12.653Z,9.57
2022-09-28T06:03:41.024Z,7.70
2022-09-28T06:06:09.297Z,4.10
2022-09-28T06:08:38.828Z,5.00
2022-09-28T06:11:27.892Z,8.70
2022-09-28T06:13:58.467Z,5.43
2022-09-28T06:16:29.928Z,5.67
2022-09-28T06:18:58.323Z,6.77
2022-09-28T06:21:58.350Z,3.30
2022-09-28T06:24:27.698Z,7.30
2022-09-28T06:26:57.494Z,3.47
2022-09-28T06:29:27.111Z,8.07
2022-09-28T06:31:56.243Z,4.17
2022-09-28T06:34:24.927Z,5.00
2022-09-28T06:36:53.825Z,6.63
2022-09-28T06:39:22.404Z,5.93
2022-09-28T06:41:52.632Z,4.40
2022-09-28T06:44:25.235Z,7.17
2022-09-28T06:47:19.763Z,6.13
2022-09-28T06:50:17.278Z,4.27
2022-09-28T06:53:00.558Z,3.23
2022-09-28T06:55:49.247Z,7.27
2022-09-28T06:58:20.869Z,3.57
2022-09-28T07:00:52.457Z,2.50
2022-09-28T07:03:22.477Z,5.43
2022-09-28T07:06:04.801Z,2.73
2022-09-28T07:09:22.894Z,2.83
2022-09-28T07:12:14.463Z,4.70
2022-09-28T07:14:56.423Z,4.77
2022-09-28T07:17:28.551Z,3.93
2022-09-28T07:20:10.705Z,4.27
2022-09-28T07:22:45.420Z,4.60
2022-09-28T07:25:19.527Z,3.50
2022-09-28T07:27:59.738Z,3.47
2022-09-28T07:31:03.746Z,2.00
2022-09-28T07:34:03.164Z,2.70
2022-09-28T07:36:39.230Z,3.47
2022-09-28T07:39:07.784Z,2.87
2022-09-28T07:41:36.334Z,3.60
2022-09-28T07:44:07.691Z,2.07
2022-09-28T07:46:38.162Z,4.77
2022-09-28T07:49:19.436Z,5.03
2022-09-28T07:52:10.838Z,7.40
2022-09-28T07:54:52.340Z,5.23
2022-09-28T07:57:56.320Z,3.60
2022-09-28T08:01:01.230Z,3.53
2022-09-28T08:03:30.477Z,3.57
2022-09-28T08:06:01.188Z,2.60
2022-09-28T08:08:30.267Z,3.47
2022-09-28T08:10:59.863Z,4.13
2022-09-28T08:14:06.719Z,2.90
2022-09-28T08:16:55.527Z,5.70
2022-09-28T08:19:51.185Z,3.27
2022-09-28T08:22:21.878Z,7.23
2022-09-28T08:24:52.863Z,3.97
2022-09-28T08:27:21.316Z,3.90
2022-09-28T08:29:49.832Z,4.57
2022-09-28T08:32:37.247Z,6.50
2022-09-28T08:35:26.493Z,4.40
2022-09-28T08:38:19.438Z,4.17
2022-09-28T08:40:58.867Z,4.03
2022-09-28T08:44:04.564Z,6.33
2022-09-28T08:46:48.266Z,5.57
2022-09-28T08:49:38.555Z,6.87
2022-09-28T08:52:19.227Z,13.27
2022-09-28T08:55:10.206Z,5.00
2022-09-28T08:57:46.216Z,11.13
2022-09-28T09:00:22.629Z,6.40
2022-09-28T09:02:51.130Z,5.07
2022-09-28T09:05:22.696Z,6.30
2022-09-28T09:08:13.343Z,10.20
2022-09-28T09:10:51.110Z,7.80
2022-09-28T09:13:58.210Z,12.83
2022-09-28T09:16:33.785Z,8.07
2022-09-28T09:19:36.491Z,6.63
2022-09-28T09:22:35.168Z,6.27
2022-09-28T09:25:14.878Z,8.53
2022-09-28T09:27:54.932Z,5.63
2022-09-28T09:30:29.870Z,4.77
2022-09-28T09:33:08.167Z,7.20
2022-09-28T09:36:03.918Z,4.70
2022-09-28T09:39:11.388Z,4.43
2022-09-28T09:42:12.974Z,4.70
2022-09-28T09:45:24.002Z,4.07
2022-09-28T09:48:14.023Z,3.87
2022-09-28T09:50:48.941Z,4.13
2022-09-28T09:53:22.372Z,3.50
2022-09-28T09:55:54.973Z,3.73
2022-09-28T09:58:33.099Z,3.57
2022-09-28T10:01:14.235Z,3.73
2022-09-28T10:04:15.727Z,3.13
2022-09-28T10:06:45.440Z,4.13
2022-09-28T10:09:18.589Z,3.37
2022-09-28T10:11:52.326Z,4.13
2022-09-28T10:14:22.660Z,3.20
2022-09-28T10:17:00.540Z,3.03
2022-09-28T10:20:05.154Z,3.57
2022-09-28T10:22:33.611Z,3.07
2022-09-28T10:25:13.122Z,3.30
2022-09-28T10:27:46.053Z,4.93
2022-09-28T10:30:18.511Z,4.50
2022-09-28T10:32:51.434Z,3.20
2022-09-28T10:35:25.496Z,3.87
2022-09-28T10:38:08.045Z,3.20
2022-09-28T10:40:47.062Z,2.97
2022-09-28T10:43:23.663Z,2.80
2022-09-28T10:46:02.475Z,2.90
2022-09-28T10:48:40.381Z,2.60
2022-09-28T10:51:09.801Z,2.80
2022-09-28T10:53:40.333Z,3.30
2022-09-28T10:56:23.949Z,2.77
2022-09-28T10:58:58.536Z,3.80
2022-09-28T11:01:41.561Z,3.40
2022-09-28T11:04:21.884Z,2.67
2022-09-28T11:06:51.574Z,2.87
2022-09-28T11:09:29.930Z,2.90
2022-09-28T11:12:05.166Z,4.23
2022-09-28T11:14:41.877Z,3.23
2022-09-28T11:17:19.715Z,3.90
2022-09-28T11:19:51.481Z,4.00
2022-09-28T11:22:26.253Z,3.83
2022-09-28T11:25:22.025Z,3.53
2022-09-28T11:27:58.751Z,3.37
2022-09-28T11:30:28.994Z,3.50
2022-09-28T11:33:31.571Z,3.57
2022-09-28T11:36:17.213Z,2.93
2022-09-28T11:38:53.788Z,3.50
2022-09-28T11:41:45.659Z,2.90
2022-09-28T11:44:39.535Z,3.27
2022-09-28T11:47:31.085Z,3.03
2022-09-28T11:50:03.424Z,4.40
2022-09-28T11:52:38.733Z,2.67
2022-09-28T11:55:13.265Z,3.07
2022-09-28T11:57:44.754Z,4.70
2022-09-28T12:00:16.827Z,4.47
2022-09-28T12:02:50.622Z,3.40
2022-09-28T12:05:25.173Z,2.77
2022-09-28T12:07:57.842Z,4.40
2022-09-28T12:10:48.744Z,3.43
2022-09-28T12:13:22.841Z,2.87
2022-09-28T12:18:46.180Z,3.63
2022-09-28T12:21:28.926Z,2.80
2022-09-28T12:24:03.897Z,3.30
2022-09-28T12:26:38.009Z,4.30
2022-09-28T12:29:08.591Z,5.10
2022-09-28T12:31:40.675Z,3.27
2022-09-28T12:34:11.267Z,3.70
2022-09-28T12:36:48.714Z,3.30
2022-09-28T12:39:46.812Z,3.13
2022-09-28T12:42:27.994Z,3.23
2022-09-28T12:45:09.916Z,4.03
2022-09-28T12:48:01.167Z,3.40
2022-09-28T12:50:38.804Z,4.20
2022-09-28T12:53:23.618Z,3.03
2022-09-28T12:56:01.431Z,3.73
2022-09-28T12:58:46.027Z,4.10
2022-09-28T13:01:28.112Z,3.17
2022-09-28T13:04:11.434Z,3.90
2022-09-28T13:06:48.749Z,3.00
2022-09-28T13:09:23.245Z,4.40
2022-09-28T13:12:16.925Z,3.37
2022-09-28T13:15:16.647Z,3.37
2022-09-28T13:17:50.729Z,2.63
2022-09-28T13:20:25.298Z,6.40
2022-09-28T13:22:58.990Z,2.80
2022-09-28T13:25:29.099Z,3.40
2022-09-28T13:28:03.076Z,2.80
2022-09-28T13:30:32.261Z,3.33
2022-09-28T13:33:02.723Z,2.57
2022-09-28T13:35:31.186Z,4.03
2022-09-28T13:38:45.784Z,3.30
2022-09-28T13:41:24.988Z,3.83
2022-09-28T13:44:12.080Z,3.30
2022-09-28T13:46:46.423Z,4.30
2022-09-28T13:49:19.408Z,2.87
2022-09-28T13:52:09.405Z,4.43
2022-09-28T13:54:55.758Z,6.37
2022-09-28T13:57:26.201Z,3.20
2022-09-28T14:00:05.809Z,5.33
2022-09-28T14:02:44.491Z,3.00
2022-09-28T14:05:35.178Z,5.00
2022-09-28T14:08:25.699Z,3.80
2022-09-28T14:10:54.898Z,4.80
2022-09-28T14:14:00.664Z,2.13
2022-09-28T14:16:32.350Z,3.30
2022-09-28T14:19:04.728Z,1.73
2022-09-28T14:21:49.169Z,2.70
2022-09-28T14:24:27.443Z,1.90
2022-09-28T14:27:19.291Z,3.17
2022-09-28T14:29:48.481Z,3.00
2022-09-28T14:32:37.474Z,2.03
2022-09-28T14:35:07.821Z,3.07
2022-09-28T14:37:54.805Z,1.93
2022-09-28T14:40:47.140Z,6.00
2022-09-28T14:43:24.553Z,3.33
2022-09-28T14:45:54.632Z,2.60
2022-09-28T14:48:44.386Z,4.03
2022-09-28T14:52:01.119Z,3.83
2022-09-28T14:54:35.503Z,3.17
2022-09-28T14:57:09.522Z,2.57
2022-09-28T14:59:43.619Z,3.97
2022-09-28T15:02:18.390Z,2.50
2022-09-28T15:04:50.455Z,2.67
2022-09-28T15:07:21.519Z,1.60
2022-09-28T15:09:51.466Z,2.80
2022-09-28T15:12:21.990Z,2.63
2022-09-28T15:14:54.333Z,2.73
2022-09-28T15:17:25.346Z,3.63
2022-09-28T15:20:21.224Z,4.10
2022-09-28T15:22:51.583Z,3.83
2022-09-28T15:25:21.339Z,4.03
2022-09-28T15:27:54.230Z,2.80
2022-09-28T15:30:26.348Z,4.03
2022-09-28T15:32:56.931Z,4.37
2022-09-28T15:35:27.315Z,5.13
2022-09-28T15:37:56.626Z,3.33
2022-09-28T15:40:31.571Z,4.00
2022-09-28T15:43:00.128Z,2.10
2022-09-28T15:45:32.638Z,3.10
2022-09-28T15:48:18.988Z,4.03
2022-09-28T15:51:11.927Z,7.00
2022-09-28T15:53:44.591Z,6.70
2022-09-28T15:56:13.136Z,3.17
2022-09-28T15:58:44.636Z,3.27
2022-09-28T16:01:26.920Z,2.87
2022-09-28T16:03:55.324Z,5.67
2022-09-28T16:06:25.037Z,5.03
2022-09-28T16:08:53.836Z,3.30
2022-09-28T16:11:24.305Z,3.80
2022-09-28T16:14:04.543Z,4.10
2022-09-28T16:16:36.638Z,3.17
2022-09-28T16:19:05.302Z,6.37
2022-09-28T16:21:45.087Z,3.53
2022-09-28T16:24:23.891Z,3.90
2022-09-28T16:26:58.527Z,4.17
2022-09-28T16:29:29.700Z,4.83
2022-09-28T16:31:57.927Z,5.50
2022-09-28T16:34:27.394Z,2.53
2022-09-28T16:36:57.054Z,3.60
2022-09-28T16:39:25.498Z,4.70
2022-09-28T16:41:56.131Z,3.80
2022-09-28T16:44:28.534Z,3.97
2022-09-28T16:47:00.741Z,10.67
2022-09-28T16:49:29.132Z,3.13
2022-09-28T16:51:59.638Z,3.20
2022-09-28T16:54:45.098Z,8.47
2022-09-28T16:57:14.856Z,3.03
2022-09-28T16:59:43.187Z,3.60
2022-09-28T17:02:42.038Z,7.70
2022-09-28T17:05:08.048Z,5.30
2022-09-28T17:07:38.114Z,4.87
2022-09-28T17:10:15.550Z,4.57
2022-09-28T17:12:43.923Z,4.67
2022-09-28T17:15:12.339Z,4.03
2022-09-28T17:17:41.123Z,3.93
2022-09-28T17:20:22.485Z,5.57
2022-09-28T17:22:52.490Z,3.47
2022-09-28T17:25:21.688Z,11.13
2022-09-28T17:27:50.572Z,3.40
2022-09-28T17:30:23.595Z,3.57
2022-09-28T17:32:54.395Z,4.30
2022-09-28T17:35:24.563Z,3.57
2022-09-28T17:37:55.300Z,4.83
2022-09-28T17:40:25.303Z,3.23
2022-09-28T17:42:56.213Z,3.90
2022-09-28T17:45:25.917Z,4.17
2022-09-28T17:47:54.221Z,6.63
2022-09-28T17:50:24.700Z,6.30
2022-09-28T17:52:53.754Z,5.00
2022-09-28T17:55:27.471Z,5.97
2022-09-28T17:57:56.434Z,5.87
2022-09-28T18:00:27.546Z,4.10
2022-09-28T18:02:56.270Z,3.73
2022-09-28T18:05:25.865Z,4.80
2022-09-28T18:07:54.766Z,5.20
2022-09-28T18:10:26.390Z,9.47
2022-09-28T18:12:54.683Z,9.77
2022-09-28T18:15:23.064Z,11.40
2022-09-28T18:17:51.432Z,8.67
2022-09-28T18:20:20.101Z,8.50
2022-09-28T18:22:48.555Z,10.23
2022-09-28T18:25:17.055Z,8.40
2022-09-28T18:27:46.882Z,8.43
2022-09-28T18:30:15.345Z,6.63
2022-09-28T18:32:43.778Z,6.17
2022-09-28T18:35:12.296Z,5.47
2022-09-28T18:37:41.576Z,9.93
2022-09-28T18:40:12.963Z,9.20
2022-09-28T18:42:41.710Z,8.90
2022-09-28T18:45:12.607Z,6.70
2022-09-28T18:47:41.319Z,8.07
2022-09-28T18:50:11.675Z,8.40
2022-09-28T18:52:41.062Z,5.63
2022-09-28T18:55:10.432Z,8.33
2022-09-28T18:57:41.350Z,9.90
2022-09-28T19:00:15.385Z,6.63
2022-09-28T19:02:44.022Z,5.63
2022-09-28T19:05:13.306Z,8.00
2022-09-28T19:07:41.774Z,5.63
2022-09-28T19:10:10.451Z,5.60
2022-09-28T19:12:38.907Z,11.23
2022-09-28T19:15:08.576Z,6.60
2022-09-28T19:17:40.067Z,6.80
2022-09-28T19:20:09.403Z,5.60
2022-09-28T19:22:38.015Z,7.20
2022-09-28T19:25:09.818Z,6.47
2022-09-28T19:27:38.700Z,6.03
2022-09-28T19:30:08.641Z,6.03
2022-09-28T19:32:37.053Z,7.20
2022-09-28T19:35:08.502Z,7.00
2022-09-28T19:37:39.257Z,6.30
2022-09-28T19:40:08.931Z,11.47
2022-09-28T19:42:37.608Z,8.77
2022-09-28T19:45:08.797Z,6.90
2022-09-28T19:47:37.789Z,9.90
2022-09-28T19:50:10.411Z,9.07
2022-09-28T19:52:39.034Z,8.40
2022-09-28T19:55:08.916Z,7.90
2022-09-28T19:57:37.317Z,8.30
2022-09-28T20:00:06.801Z,10.53
2022-09-28T20:02:36.007Z,8.50
2022-09-28T20:05:04.873Z,7.90
2022-09-28T20:07:36.289Z,7.87
2022-09-28T20:10:04.887Z,7.80
2022-09-28T20:12:35.103Z,8.90
2022-09-28T20:15:03.607Z,7.60
2022-09-28T20:17:32.087Z,6.90
2022-09-28T20:20:01.073Z,9.03
2022-09-28T20:22:29.467Z,8.63
2022-09-28T20:25:00.706Z,9.80
2022-09-28T20:27:29.307Z,9.23
2022-09-28T20:29:57.877Z,8.40
2022-09-28T20:32:26.196Z,11.37
2022-09-28T20:34:54.816Z,6.80
2022-09-28T20:37:26.436Z,6.90
2022-09-28T20:39:55.381Z,9.40
2022-09-28T20:42:25.416Z,7.80
2022-09-28T20:44:53.904Z,14.77
2022-09-28T20:47:22.328Z,6.83
2022-09-28T20:49:51.057Z,10.77
2022-09-28T20:52:20.010Z,10.33
2022-09-28T20:54:48.408Z,8.17
2022-09-28T20:57:20.145Z,8.30
2022-09-28T20:59:54.493Z,7.30
2022-09-28T21:02:23.696Z,7.83
2022-09-28T21:04:52.505Z,8.13
2022-09-28T21:07:21.066Z,9.90
2022-09-28T21:09:50.617Z,8.40
2022-09-28T21:12:19.233Z,8.07
2022-09-28T21:14:47.535Z,7.83
2022-09-28T21:17:17.301Z,7.53
2022-09-28T21:19:45.584Z,8.00
2022-09-28T21:22:13.850Z,7.43
2022-09-28T21:24:42.074Z,7.00
2022-09-28T21:27:10.338Z,7.97
2022-09-28T21:29:38.613Z,8.60
2022-09-28T21:32:08.275Z,6.63
2022-09-28T21:34:38.131Z,7.27
2022-09-28T21:37:06.965Z,10.63
2022-09-28T21:39:35.293Z,7.13
2022-09-28T21:42:04.160Z,7.80
2022-09-28T21:44:32.380Z,9.73
2022-09-28T21:47:00.964Z,7.30
2022-09-28T21:49:29.197Z,8.03
2022-09-28T21:51:58.895Z,9.57
2022-09-28T21:54:29.010Z,7.53
2022-09-28T21:56:57.331Z,6.80
2022-09-28T21:59:25.947Z,8.60
2022-09-28T22:01:54.357Z,7.03
2022-09-28T22:04:22.749Z,7.23
2022-09-28T22:06:51.473Z,7.40
2022-09-28T22:09:21.152Z,17.13
2022-09-28T22:11:51.212Z,7.43
2022-09-28T22:14:19.602Z,8.47
2022-09-28T22:16:47.915Z,8.33
2022-09-28T22:19:16.494Z,7.40
2022-09-28T22:21:45.210Z,7.30
2022-09-28T22:24:13.452Z,10.20
2022-09-28T22:26:43.200Z,7.40
2022-09-28T22:29:11.653Z,6.67
2022-09-28T22:31:41.627Z,12.33
2022-09-28T22:34:11.006Z,7.50
2022-09-28T22:36:39.364Z,7.20
2022-09-28T22:39:07.851Z,9.77
2022-09-28T22:41:36.191Z,7.70
2022-09-28T22:44:05.987Z,7.13
2022-09-28T22:46:35.384Z,7.23
2022-09-28T22:49:03.870Z,7.50
2022-09-28T22:51:32.304Z,7.30
2022-09-28T22:54:01.299Z,10.20
2022-09-28T22:56:30.399Z,6.50
2022-09-28T22:58:58.815Z,6.47
2022-09-28T23:01:30.038Z,8.63
2022-09-28T23:03:58.909Z,7.30
2022-09-28T23:06:29.144Z,6.30
2022-09-28T23:08:57.573Z,5.83
2022-09-28T23:11:26.102Z,7.43
2022-09-28T23:13:56.013Z,9.30
2022-09-28T23:16:26.825Z,6.37
2022-09-28T23:18:57.300Z,8.13
2022-09-28T23:21:27.148Z,6.73
2022-09-28T23:23:56.977Z,7.53
2022-09-28T23:26:27.491Z,6.10
2022-09-28T23:28:56.191Z,7.50
2022-09-28T23:31:26.143Z,6.17
2022-09-28T23:33:59.682Z,6.70
2022-09-28T23:36:28.083Z,10.70
2022-09-28T23:38:56.445Z,7.60
2022-09-28T23:41:24.659Z,7.43
2022-09-28T23:43:53.026Z,7.03
2022-09-28T23:46:21.542Z,8.20
2022-09-28T23:48:50.468Z,15.60
2022-09-28T23:51:20.110Z,7.33
2022-09-28T23:53:48.445Z,9.07
2022-09-28T23:56:17.086Z,7.33
2022-09-28T23:58:45.510Z,7.43
